Terminal Aerodrome Forecast
Issued by NWS

Home | Current Version | Previous Version | Text Only | Print | Product List | Glossary On
Versions: 1 2 3 4 5 6 7 8 9 10 11 12 13 14 15 16 17 18 19 20 21 22
000
FTUS43 KILX 010639 AAA
TAFBMI
TAF AMD
KBMI 010639Z 0107/0206 02009KT P6SM -RADZ OVC005
     FM010900 36006KT 4SM -DZ BR OVC003
     FM011100 35005KT 1 1/2SM -DZ BR OVC002
     FM011600 30005KT 4SM BR VCSH BKN006 OVC012
     FM020000 30005KT P6SM OVC020=

USA.gov is the U.S. government's official web portal to all federal, state and local government web resources and services.